Time;durP1;ratioP1;P1;durP2;ratioP2;P2;SDS_P1;SDS_P2;PMS_P1;PMS_P2;Temp;Humidity;BMP_temperature;BMP_pressure;BME280_temperature;BME280_humidity;BME280_pressure;Samples;Min_cycle;Max_cycle;Signal;HPM_P1;HPM_P2
2023/06/17 00:00:20;;;;;;;8.10;5.30;;;13.50;22.50;;;;;;5032469;28;46431;-78
2023/06/17 00:02:46;;;;;;;9.00;5.40;;;13.40;22.60;;;;;;5031671;28;46306;-79
2023/06/17 00:05:11;;;;;;;12.93;6.43;;;13.40;22.80;;;;;;5032376;28;48498;-78
2023/06/17 00:07:39;;;;;;;10.37;6.43;;;13.30;22.80;;;;;;5033476;28;46469;-78
2023/06/17 00:10:06;;;;;;;8.27;5.33;;;13.30;23.00;;;;;;5030509;28;46392;-78
2023/06/17 00:12:31;;;;;;;10.83;6.60;;;13.20;23.10;;;;;;5034804;28;46573;-78
2023/06/17 00:15:01;;;;;;;13.90;7.30;;;13.20;23.30;;;;;;5039364;28;47125;-78
2023/06/17 00:17:30;;;;;;;13.13;6.40;;;13.10;23.20;;;;;;5034626;28;46477;-78
2023/06/17 00:19:56;;;;;;;10.40;6.73;;;13.20;23.30;;;;;;5032732;28;46804;-79
2023/06/17 00:22:24;;;;;;;11.83;6.20;;;13.10;23.40;;;;;;5034415;28;46355;-78
2023/06/17 00:24:53;;;;;;;8.60;5.83;;;13.00;23.50;;;;;;5038231;28;47552;-79
2023/06/17 00:27:18;;;;;;;10.93;6.60;;;12.90;23.70;;;;;;5038868;28;46043;-78
2023/06/17 00:29:44;;;;;;;10.20;5.93;;;12.90;23.70;;;;;;5034960;28;46957;-78
2023/06/17 00:32:09;;;;;;;11.13;5.60;;;12.80;23.80;;;;;;5035123;28;46443;-79
2023/06/17 00:34:35;;;;;;;9.90;5.50;;;12.70;23.80;;;;;;5030316;28;46374;-77
2023/06/17 00:37:00;;;;;;;9.00;5.63;;;12.70;23.90;;;;;;5036403;28;46732;-78
2023/06/17 00:39:26;;;;;;;14.70;5.67;;;12.60;24.10;;;;;;5031193;28;46261;-77
2023/06/17 00:41:52;;;;;;;10.03;5.23;;;12.50;24.20;;;;;;5034532;28;46445;-78
2023/06/17 00:44:17;;;;;;;8.60;5.30;;;12.50;24.20;;;;;;5031540;28;46640;-78
2023/06/17 00:46:50;;;;;;;11.43;6.40;;;12.50;24.40;;;;;;5028177;28;47198;-78
2023/06/17 00:49:17;;;;;;;10.10;5.40;;;12.40;24.50;;;;;;5032506;28;46537;-79
2023/06/17 00:51:42;;;;;;;10.10;5.73;;;12.30;24.50;;;;;;5033136;28;46530;-79
2023/06/17 00:54:08;;;;;;;8.97;5.70;;;12.20;24.60;;;;;;5033312;28;46862;-78
2023/06/17 00:56:36;;;;;;;9.00;5.83;;;12.10;24.70;;;;;;5038900;28;46494;-78
2023/06/17 00:59:03;;;;;;;10.60;5.97;;;12.10;24.80;;;;;;5033776;28;46733;-80
2023/06/17 01:01:35;;;;;;;9.23;5.80;;;12.00;25.00;;;;;;5033337;28;46320;-79
2023/06/17 01:04:02;;;;;;;9.93;5.93;;;11.90;25.30;;;;;;5034630;28;46737;-78
2023/06/17 01:06:55;;;;;;;12.93;6.50;;;11.80;25.20;;;;;;5031395;28;46408;-79
2023/06/17 01:09:27;;;;;;;10.07;5.83;;;11.80;25.70;;;;;;5037047;28;46348;-78
2023/06/17 01:11:56;;;;;;;10.10;6.53;;;11.70;25.30;;;;;;5038152;28;46438;-81
2023/06/17 01:14:22;;;;;;;9.83;6.30;;;11.70;25.40;;;;;;5037344;28;46990;-82
2023/06/17 01:16:50;;;;;;;10.00;6.70;;;11.60;25.40;;;;;;5043210;28;46486;-81
2023/06/17 01:19:20;;;;;;;10.90;7.10;;;11.60;25.50;;;;;;5033528;28;46401;-79
2023/06/17 01:21:48;;;;;;;11.87;6.70;;;11.60;25.70;;;;;;5037887;28;46440;-74
2023/06/17 01:24:29;;;;;;;20.30;7.33;;;11.60;25.70;;;;;;5028297;28;48207;-79
2023/06/17 01:27:00;;;;;;;9.60;6.03;;;11.60;25.90;;;;;;5033280;28;46479;-79
2023/06/17 01:29:29;;;;;;;12.93;7.07;;;11.60;25.80;;;;;;5033089;28;46939;-79
2023/06/17 01:31:58;;;;;;;9.83;6.57;;;11.50;25.90;;;;;;5030311;28;46808;-77
2023/06/17 01:34:59;;;;;;;13.67;6.73;;;11.50;26.00;;;;;;5030052;28;48724;-78
2023/06/17 01:38:20;;;;;;;12.80;6.90;;;11.40;26.60;;;;;;5033612;28;46431;-80
2023/06/17 01:40:52;;;;;;;14.73;6.17;;;11.30;27.70;;;;;;4988536;28;46427;-80
2023/06/17 01:43:18;;;;;;;13.30;7.53;;;11.30;26.20;;;;;;5030148;28;46680;-80
2023/06/17 01:45:46;;;;;;;14.27;6.53;;;11.30;26.30;;;;;;5030552;28;47566;-79
2023/06/17 01:48:11;;;;;;;10.40;7.13;;;11.30;26.20;;;;;;5029588;28;46417;-78
2023/06/17 01:50:37;;;;;;;12.43;6.67;;;11.30;26.20;;;;;;5031545;28;46508;-77
2023/06/17 01:53:02;;;;;;;12.10;6.40;;;11.40;26.30;;;;;;5031941;28;46200;-81
2023/06/17 01:55:28;;;;;;;10.83;6.40;;;11.30;26.20;;;;;;5031948;28;47512;-77
2023/06/17 01:57:54;;;;;;;21.13;7.10;;;11.40;26.40;;;;;;5030981;28;46821;-80
2023/06/17 02:00:19;;;;;;;10.63;7.00;;;11.40;26.50;;;;;;5030079;28;46502;-79
2023/06/17 02:02:46;;;;;;;13.17;8.00;;;11.40;26.40;;;;;;5035381;28;46476;-78
2023/06/17 02:05:12;;;;;;;10.60;6.97;;;11.40;26.30;;;;;;5026541;28;46887;-78
2023/06/17 02:07:38;;;;;;;11.73;6.97;;;11.40;26.30;;;;;;5033933;28;46691;-76
2023/06/17 02:10:04;;;;;;;11.30;6.67;;;11.40;26.40;;;;;;5030803;28;46488;-79
2023/06/17 02:12:30;;;;;;;13.13;7.10;;;11.40;26.60;;;;;;5034141;28;46390;-76
2023/06/17 02:14:55;;;;;;;13.40;7.43;;;11.40;26.70;;;;;;5030979;28;47025;-79
2023/06/17 02:17:23;;;;;;;10.83;7.00;;;11.30;26.80;;;;;;5029222;28;46401;-80
2023/06/17 02:19:49;;;;;;;10.80;6.73;;;11.20;26.90;;;;;;5029369;28;46465;-79
2023/06/17 02:22:14;;;;;;;11.53;7.27;;;11.20;26.90;;;;;;5030074;28;46328;-79
2023/06/17 02:24:40;;;;;;;11.10;7.50;;;11.10;26.90;;;;;;5028884;28;47173;-79
2023/06/17 02:27:06;;;;;;;8.80;6.00;;;11.10;26.90;;;;;;5031466;28;47932;-77
2023/06/17 02:29:32;;;;;;;13.43;7.27;;;11.10;26.90;;;;;;5031081;28;46549;-78
2023/06/17 02:31:57;;;;;;;11.20;7.60;;;11.00;26.80;;;;;;5033662;28;46542;-78
2023/06/17 02:34:23;;;;;;;10.53;7.03;;;11.00;26.80;;;;;;5028235;28;46538;-78
2023/06/17 02:36:49;;;;;;;10.43;6.23;;;11.10;26.90;;;;;;5028101;28;46453;-77
2023/06/17 02:39:15;;;;;;;10.77;7.57;;;11.00;26.80;;;;;;5031825;28;46945;-79
2023/06/17 02:41:41;;;;;;;11.10;8.00;;;11.00;26.80;;;;;;5028278;28;46474;-79
2023/06/17 02:44:07;;;;;;;11.50;7.33;;;11.00;26.80;;;;;;5028828;28;46533;-79
2023/06/17 02:46:32;;;;;;;12.63;7.97;;;11.10;26.90;;;;;;5032225;28;46771;-77
2023/06/17 02:48:58;;;;;;;12.27;7.23;;;11.10;26.90;;;;;;5029434;28;46722;-80
2023/06/17 02:51:23;;;;;;;12.37;7.87;;;11.10;26.90;;;;;;5031913;28;46442;-80
2023/06/17 02:53:49;;;;;;;13.03;7.07;;;11.10;26.90;;;;;;5036589;28;48236;-81
2023/06/17 02:56:15;;;;;;;11.67;6.80;;;11.10;26.90;;;;;;5032799;28;46441;-80
2023/06/17 02:58:43;;;;;;;11.13;7.10;;;11.10;26.90;;;;;;5034570;28;46384;-80
2023/06/17 03:01:11;;;;;;;9.57;6.50;;;11.00;26.80;;;;;;5035676;28;46445;-78
2023/06/17 03:03:36;;;;;;;14.00;7.77;;;10.90;26.80;;;;;;5041059;28;48650;-81
2023/06/17 03:06:05;;;;;;;10.60;7.43;;;10.90;26.90;;;;;;5033958;28;46547;-77
2023/06/17 03:08:32;;;;;;;12.70;7.20;;;10.90;27.20;;;;;;5028591;28;46158;-78
2023/06/17 03:10:58;;;;;;;11.03;7.03;;;10.90;27.30;;;;;;5028008;28;46605;-77
2023/06/17 03:13:24;;;;;;;13.87;7.40;;;10.80;27.30;;;;;;5027433;28;46622;-78
2023/06/17 03:15:50;;;;;;;11.87;7.20;;;10.90;27.20;;;;;;5033906;28;46294;-78
2023/06/17 03:18:16;;;;;;;14.23;7.00;;;10.90;27.20;;;;;;5027919;28;46397;-79
2023/06/17 03:20:42;;;;;;;10.60;7.23;;;10.90;27.10;;;;;;5027183;28;46364;-78
2023/06/17 03:23:08;;;;;;;10.43;7.50;;;11.00;26.90;;;;;;5044793;28;48669;-79
2023/06/17 03:25:34;;;;;;;11.30;7.27;;;11.00;26.80;;;;;;5027142;28;46451;-77
2023/06/17 03:28:02;;;;;;;9.80;7.60;;;11.10;26.90;;;;;;5025760;28;46752;-77
2023/06/17 03:30:29;;;;;;;11.27;7.60;;;11.10;26.90;;;;;;5031877;28;46427;-78
2023/06/17 03:32:57;;;;;;;10.60;7.30;;;11.10;26.90;;;;;;5036323;28;48238;-79
2023/06/17 03:35:23;;;;;;;12.23;7.17;;;11.20;26.90;;;;;;5040504;28;46777;-78
2023/06/17 03:37:49;;;;;;;10.40;6.90;;;11.20;26.90;;;;;;5029482;28;46950;-76
2023/06/17 03:40:15;;;;;;;14.10;7.00;;;11.30;27.00;;;;;;5034039;28;46582;-79
2023/06/17 03:42:40;;;;;;;11.90;6.87;;;11.30;28.00;;;;;;5029782;28;47007;-77
2023/06/17 03:45:07;;;;;;;10.70;6.43;;;11.30;27.00;;;;;;5031820;28;45815;-79
2023/06/17 03:47:32;;;;;;;10.20;7.03;;;11.40;27.10;;;;;;5032795;28;46458;-78
2023/06/17 03:49:58;;;;;;;11.70;7.83;;;11.40;27.10;;;;;;5034130;28;46468;-78
2023/06/17 03:52:23;;;;;;;12.87;6.67;;;11.40;27.10;;;;;;5035090;28;46605;-78
2023/06/17 03:54:49;;;;;;;11.20;7.43;;;11.40;27.10;;;;;;5033164;28;46546;-78
2023/06/17 03:57:15;;;;;;;12.27;7.87;;;11.50;27.20;;;;;;5038229;28;46471;-79
2023/06/17 03:59:41;;;;;;;10.77;7.50;;;11.60;27.20;;;;;;5032736;28;46852;-77
2023/06/17 04:02:07;;;;;;;10.93;7.00;;;11.70;27.30;;;;;;5037669;28;48599;-77
2023/06/17 04:04:34;;;;;;;10.80;7.63;;;11.80;26.90;;;;;;5034259;28;46506;-77
2023/06/17 04:07:00;;;;;;;15.63;7.37;;;11.90;26.60;;;;;;5036829;28;46475;-78
2023/06/17 04:09:26;;;;;;;14.83;7.30;;;12.10;26.60;;;;;;5033823;28;46619;-78
2023/06/17 04:11:51;;;;;;;11.60;6.40;;;12.20;26.50;;;;;;5030675;28;46363;-78
2023/06/17 04:14:17;;;;;;;9.50;7.10;;;12.30;26.30;;;;;;5032505;28;46579;-79
2023/06/17 04:16:44;;;;;;;10.63;6.97;;;12.40;26.20;;;;;;5035821;28;46413;-78
2023/06/17 04:19:13;;;;;;;10.23;7.17;;;12.50;26.10;;;;;;5040370;28;46352;-77
2023/06/17 04:21:39;;;;;;;10.37;6.90;;;12.70;25.90;;;;;;5032157;28;46537;-79
2023/06/17 04:24:05;;;;;;;13.80;7.20;;;12.90;25.60;;;;;;5033463;28;47803;-79
2023/06/17 04:26:31;;;;;;;11.00;6.77;;;13.10;25.40;;;;;;5035251;28;46448;-77
2023/06/17 04:28:56;;;;;;;15.77;7.90;;;13.20;25.10;;;;;;5035496;28;46874;-78
2023/06/17 04:31:22;;;;;;;15.60;7.63;;;13.40;25.00;;;;;;5032536;28;48034;-76
2023/06/17 04:33:48;;;;;;;10.33;6.83;;;13.60;24.80;;;;;;5034808;28;46162;-76
2023/06/17 04:36:17;;;;;;;17.63;8.13;;;14.00;24.80;;;;;;5036895;28;46446;-78
2023/06/17 04:38:42;;;;;;;18.80;8.30;;;14.10;24.40;;;;;;5033438;28;46470;-77
2023/06/17 04:41:08;;;;;;;13.00;7.90;;;14.30;24.20;;;;;;5040355;28;47866;-78
2023/06/17 04:43:36;;;;;;;13.60;8.60;;;14.70;23.80;;;;;;5039511;28;46470;-75
2023/06/17 04:46:02;;;;;;;13.80;8.40;;;16.00;22.70;;;;;;5040851;28;46632;-75
2023/06/17 04:48:31;;;;;;;10.87;7.07;;;17.70;20.80;;;;;;5036041;28;46478;-80
2023/06/17 04:50:57;;;;;;;11.57;6.17;;;19.20;18.50;;;;;;5038791;28;46359;-79
2023/06/17 04:53:23;;;;;;;15.00;7.30;;;20.40;16.50;;;;;;5035957;28;46903;-78
2023/06/17 04:55:49;;;;;;;9.53;6.10;;;21.40;14.60;;;;;;5035869;28;46517;-79
2023/06/17 04:58:14;;;;;;;14.87;6.73;;;22.20;12.90;;;;;;5033863;28;46446;-78
2023/06/17 05:00:40;;;;;;;10.10;6.53;;;23.10;12.20;;;;;;5031682;28;46479;-77
2023/06/17 05:03:05;;;;;;;8.43;5.73;;;23.60;11.10;;;;;;5038823;28;46575;-77
2023/06/17 05:05:31;;;;;;;8.50;6.10;;;24.20;10.40;;;;;;5030370;28;46628;-78
2023/06/17 05:07:56;;;;;;;9.10;6.37;;;24.80;9.20;;;;;;5031944;28;46459;-78
2023/06/17 05:10:22;;;;;;;13.93;6.20;;;25.10;8.30;;;;;;5033614;28;47020;-77
2023/06/17 05:12:47;;;;;;;15.37;6.10;;;25.60;7.50;;;;;;5029507;28;46543;-77
2023/06/17 05:15:13;;;;;;;17.93;7.00;;;25.90;6.50;;;;;;5033817;28;46484;-78
2023/06/17 05:17:39;;;;;;;10.43;6.60;;;26.30;4.90;;;;;;5037034;28;46482;-77
2023/06/17 05:20:06;;;;;;;16.00;6.20;;;26.60;4.30;;;;;;5033175;28;46473;-78
2023/06/17 05:22:31;;;;;;;9.73;5.53;;;26.90;4.20;;;;;;5036332;28;46764;-78
2023/06/17 05:24:57;;;;;;;12.10;6.27;;;27.40;3.20;;;;;;5035166;28;46972;-78
2023/06/17 05:27:23;;;;;;;10.40;6.23;;;27.80;2.40;;;;;;5029995;28;46407;-78
2023/06/17 05:29:49;;;;;;;9.87;6.00;;;28.10;1.80;;;;;;5033183;28;46493;-77
2023/06/17 05:32:15;;;;;;;16.13;6.13;;;28.40;1.20;;;;;;5032090;28;46754;-80
2023/06/17 05:34:40;;;;;;;9.30;6.27;;;28.70;1.00;;;;;;5033078;28;46566;-78
2023/06/17 05:37:06;;;;;;;12.63;6.63;;;29.10;1.00;;;;;;5038793;28;46404;-79
2023/06/17 05:39:31;;;;;;;10.57;5.30;;;29.30;1.00;;;;;;5032879;28;46445;-78
2023/06/17 05:41:57;;;;;;;7.23;5.43;;;29.40;1.00;;;;;;5032965;28;46513;-75
2023/06/17 05:44:22;;;;;;;10.47;5.80;;;29.70;1.00;;;;;;5035299;28;46406;-78
2023/06/17 05:46:48;;;;;;;12.70;5.80;;;29.90;1.00;;;;;;5037096;28;46510;-77
2023/06/17 05:49:14;;;;;;;8.43;5.50;;;30.00;1.00;;;;;;5037292;28;46358;-77
2023/06/17 05:51:40;;;;;;;9.50;5.40;;;30.10;1.00;;;;;;5030207;28;46352;-77
2023/06/17 05:54:05;;;;;;;11.73;6.00;;;29.90;1.00;;;;;;5033669;28;46447;-80
2023/06/17 05:56:31;;;;;;;8.27;5.47;;;28.50;1.00;;;;;;5031113;28;46434;-79
2023/06/17 05:58:56;;;;;;;7.50;5.27;;;27.20;1.00;;;;;;5036156;28;48367;-78
2023/06/17 06:01:22;;;;;;;9.20;5.80;;;26.10;2.40;;;;;;5026986;28;46467;-78
2023/06/17 06:03:47;;;;;;;10.30;5.63;;;25.40;3.70;;;;;;5026870;28;46544;-78
2023/06/17 06:06:13;;;;;;;9.37;5.80;;;24.80;3.80;;;;;;5025689;28;46499;-79
2023/06/17 06:08:39;;;;;;;9.80;5.17;;;24.60;4.60;;;;;;5033127;28;49324;-77
2023/06/17 06:11:04;;;;;;;9.90;6.60;;;24.20;4.40;;;;;;5027806;28;46451;-78
2023/06/17 06:13:30;;;;;;;13.13;5.63;;;24.10;4.50;;;;;;5034059;28;46546;-77
2023/06/17 06:15:55;;;;;;;12.13;6.27;;;24.00;4.30;;;;;;5029384;28;46950;-77
2023/06/17 06:18:21;;;;;;;12.07;5.80;;;23.90;4.40;;;;;;5029151;28;46567;-76
2023/06/17 06:20:47;;;;;;;10.57;5.70;;;24.00;4.30;;;;;;5029754;28;47004;-77
2023/06/17 06:23:12;;;;;;;11.17;5.70;;;23.80;4.40;;;;;;5030555;28;46841;-76
2023/06/17 06:25:38;;;;;;;11.07;6.03;;;23.70;4.10;;;;;;5028580;28;46533;-77
2023/06/17 06:28:05;;;;;;;11.93;5.70;;;23.70;4.00;;;;;;5030807;28;49002;-77
2023/06/17 06:30:31;;;;;;;11.80;5.77;;;23.30;4.30;;;;;;5031120;28;46526;-77
2023/06/17 06:32:56;;;;;;;12.10;6.53;;;23.40;4.20;;;;;;5028057;28;46490;-77
2023/06/17 06:35:22;;;;;;;10.60;5.50;;;23.40;4.30;;;;;;5032178;28;46436;-77
2023/06/17 06:37:47;;;;;;;11.03;6.17;;;23.60;4.00;;;;;;5027823;28;46580;-78
2023/06/17 06:40:13;;;;;;;8.60;5.30;;;23.80;3.80;;;;;;5028817;28;46392;-78
2023/06/17 06:42:39;;;;;;;13.97;6.17;;;24.00;3.40;;;;;;5032598;28;46366;-77
2023/06/17 06:45:05;;;;;;;10.27;6.27;;;23.80;3.20;;;;;;5025200;28;46392;-77
2023/06/17 06:47:30;;;;;;;11.90;5.80;;;24.00;2.80;;;;;;5028970;28;48252;-76
2023/06/17 06:49:56;;;;;;;9.03;6.10;;;24.10;2.80;;;;;;5025802;28;46498;-77
2023/06/17 06:52:21;;;;;;;11.53;5.33;;;24.20;2.90;;;;;;5029519;28;46663;-77
2023/06/17 06:54:47;;;;;;;12.00;5.50;;;24.20;2.90;;;;;;5030665;28;45859;-77
2023/06/17 06:57:12;;;;;;;9.90;6.10;;;24.30;3.00;;;;;;5030368;28;47021;-77
2023/06/17 06:59:38;;;;;;;11.30;6.27;;;24.40;3.00;;;;;;5027877;28;46615;-77
2023/06/17 07:02:04;;;;;;;14.43;6.80;;;24.60;3.20;;;;;;5030609;28;46773;-77
2023/06/17 07:04:30;;;;;;;14.43;5.20;;;24.50;3.00;;;;;;5026269;28;46482;-77
2023/06/17 07:06:55;;;;;;;9.53;5.70;;;24.20;2.90;;;;;;5032215;28;48024;-77
2023/06/17 07:09:21;;;;;;;9.37;5.30;;;24.20;2.80;;;;;;5029348;28;46495;-77
2023/06/17 07:11:47;;;;;;;9.50;5.90;;;24.10;2.80;;;;;;5027593;28;45836;-78
2023/06/17 07:14:12;;;;;;;12.80;6.40;;;24.20;2.90;;;;;;5038435;28;46497;-77
2023/06/17 07:16:38;;;;;;;11.30;5.90;;;24.40;3.00;;;;;;5025036;28;48287;-77
2023/06/17 07:19:03;;;;;;;12.10;6.70;;;24.70;3.20;;;;;;5031129;28;46400;-77
2023/06/17 07:21:29;;;;;;;12.10;6.10;;;24.60;3.20;;;;;;5028500;28;46500;-78
2023/06/17 07:23:54;;;;;;;10.73;5.83;;;24.60;3.20;;;;;;5027752;28;46431;-78
2023/06/17 07:26:20;;;;;;;9.20;6.00;;;24.90;2.70;;;;;;5027615;28;46486;-77
2023/06/17 07:28:45;;;;;;;13.93;5.80;;;24.80;2.50;;;;;;5029466;28;46479;-76
2023/06/17 07:31:12;;;;;;;15.43;5.73;;;25.00;2.20;;;;;;5032543;28;46766;-79
2023/06/17 07:33:39;;;;;;;11.30;6.13;;;25.10;2.00;;;;;;5031571;28;46431;-79
2023/06/17 07:36:05;;;;;;;9.60;5.03;;;25.00;1.90;;;;;;5031261;28;46574;-78
2023/06/17 07:38:33;;;;;;;8.07;5.37;;;25.00;1.80;;;;;;5030318;28;46513;-78
2023/06/17 07:41:01;;;;;;;8.60;5.30;;;25.00;1.60;;;;;;5032479;28;46445;-77
2023/06/17 07:43:27;;;;;;;11.80;4.87;;;24.80;1.80;;;;;;5024983;28;46481;-77
2023/06/17 07:45:53;;;;;;;7.83;5.00;;;25.00;1.40;;;;;;5025534;28;46510;-75
2023/06/17 07:48:18;;;;;;;15.07;5.47;;;25.30;1.00;;;;;;5025297;28;46524;-78
2023/06/17 07:50:44;;;;;;;9.80;5.50;;;25.30;1.60;;;;;;5026496;28;46435;-79
2023/06/17 07:53:10;;;;;;;12.10;5.90;;;25.30;1.00;;;;;;5035480;28;46618;-79
2023/06/17 07:55:36;;;;;;;13.07;5.30;;;25.40;1.00;;;;;;5026361;28;46847;-78
2023/06/17 07:58:02;;;;;;;14.53;5.13;;;25.20;1.00;;;;;;5033844;28;46482;-78
2023/06/17 08:00:27;;;;;;;7.53;4.70;;;25.10;1.00;;;;;;5027342;28;46641;-78
2023/06/17 08:02:54;;;;;;;8.97;5.40;;;25.00;1.00;;;;;;5023368;28;46629;-78
2023/06/17 08:05:20;;;;;;;9.80;4.67;;;24.80;1.10;;;;;;5044118;28;49162;-79
2023/06/17 08:07:45;;;;;;;8.80;4.47;;;24.70;1.10;;;;;;5029264;28;46447;-77
2023/06/17 08:10:11;;;;;;;7.40;4.87;;;25.00;1.20;;;;;;5024437;28;47682;-78
2023/06/17 08:12:36;;;;;;;11.40;4.70;;;25.20;1.00;;;;;;5034106;28;46547;-78
2023/06/17 08:15:02;;;;;;;7.10;4.70;;;25.00;1.00;;;;;;5030668;28;47133;-79
2023/06/17 08:17:28;;;;;;;10.00;4.70;;;25.20;1.00;;;;;;5031142;28;46716;-78
2023/06/17 08:19:53;;;;;;;9.83;4.60;;;25.30;1.00;;;;;;5033421;28;46415;-78
2023/06/17 08:22:20;;;;;;;10.73;4.60;;;25.30;1.00;;;;;;5030140;28;46432;-77
2023/06/17 08:24:45;;;;;;;7.30;4.63;;;25.20;1.00;;;;;;5026308;28;46465;-76
2023/06/17 08:27:12;;;;;;;7.97;4.03;;;25.20;1.00;;;;;;5032014;28;46538;-79
2023/06/17 08:29:37;;;;;;;16.17;4.80;;;25.20;1.00;;;;;;5032874;28;46526;-80
2023/06/17 08:32:04;;;;;;;8.60;4.60;;;25.50;1.00;;;;;;5035402;28;46844;-80
2023/06/17 08:34:31;;;;;;;11.03;4.63;;;25.90;1.00;;;;;;5031184;28;47722;-79
2023/06/17 08:37:01;;;;;;;10.67;5.20;;;26.50;1.00;;;;;;5031163;28;46430;-80
2023/06/17 08:39:26;;;;;;;9.40;4.50;;;26.10;1.00;;;;;;5035763;28;46505;-79
2023/06/17 08:41:52;;;;;;;12.33;4.80;;;26.00;1.00;;;;;;5035959;28;46411;-76
2023/06/17 08:44:21;;;;;;;7.13;4.43;;;25.80;1.00;;;;;;5028519;28;48046;-79
2023/06/17 08:46:51;;;;;;;5.87;4.10;;;25.90;1.00;;;;;;5031339;28;47261;-79
2023/06/17 08:49:18;;;;;;;9.20;4.30;;;26.40;1.00;;;;;;5032833;28;46637;-79
2023/06/17 08:51:48;;;;;;;8.63;4.30;;;26.70;1.00;;;;;;5027918;28;46795;-80
2023/06/17 08:54:14;;;;;;;11.30;4.97;;;26.40;1.00;;;;;;5029695;28;46530;-80
2023/06/17 08:56:40;;;;;;;8.10;3.90;;;26.20;1.00;;;;;;5032236;28;46480;-80
2023/06/17 08:59:06;;;;;;;9.20;4.60;;;25.90;1.00;;;;;;5032397;28;46747;-80
2023/06/17 09:01:32;;;;;;;10.40;5.10;;;26.00;1.00;;;;;;5031750;28;46354;-81
2023/06/17 09:03:59;;;;;;;11.43;4.70;;;26.20;1.00;;;;;;5032170;28;46524;-80
2023/06/17 09:06:29;;;;;;;7.80;3.90;;;26.20;1.00;;;;;;5032860;28;46919;-80
2023/06/17 09:08:57;;;;;;;8.03;4.50;;;26.40;1.00;;;;;;5030021;28;46410;-80
2023/06/17 09:11:27;;;;;;;7.10;4.50;;;26.70;1.00;;;;;;5033552;28;46694;-78
2023/06/17 09:13:57;;;;;;;9.93;4.60;;;26.60;1.00;;;;;;5031817;28;46672;-81
2023/06/17 09:16:30;;;;;;;9.40;4.73;;;26.50;1.00;;;;;;5035535;28;46515;-79
2023/06/17 09:18:57;;;;;;;10.47;4.80;;;26.60;1.00;;;;;;5029548;28;46759;-81
2023/06/17 09:21:24;;;;;;;7.50;4.67;;;26.70;1.00;;;;;;5039284;28;46595;-78
2023/06/17 09:23:55;;;;;;;11.77;5.33;;;26.90;1.00;;;;;;5039245;28;47167;-79
2023/06/17 09:26:35;;;;;;;7.37;4.50;;;26.90;1.00;;;;;;5036393;28;46816;-80
2023/06/17 09:29:05;;;;;;;6.93;4.80;;;26.70;1.00;;;;;;5019528;28;47562;-78
2023/06/17 09:31:33;;;;;;;9.10;4.60;;;27.20;1.00;;;;;;5025347;28;46724;-77
2023/06/17 09:34:03;;;;;;;8.30;4.83;;;27.40;1.00;;;;;;5031256;28;47012;-78
2023/06/17 09:36:29;;;;;;;13.20;4.73;;;27.40;1.00;;;;;;5029470;28;46491;-78
2023/06/17 09:38:55;;;;;;;7.00;4.50;;;28.00;1.00;;;;;;5035850;28;46860;-79
2023/06/17 09:41:23;;;;;;;8.77;4.33;;;27.90;1.00;;;;;;5033734;28;46568;-77
2023/06/17 09:43:52;;;;;;;24.47;7.03;;;27.90;1.00;;;;;;5026016;28;47766;-76
2023/06/17 09:46:29;;;;;;;7.30;4.67;;;27.60;1.00;;;;;;5032083;28;46816;-79
2023/06/17 09:48:57;;;;;;;9.10;4.27;;;27.30;1.00;;;;;;5031113;28;46369;-79
2023/06/17 09:51:23;;;;;;;11.73;5.20;;;26.70;1.00;;;;;;5033688;28;46379;-78
2023/06/17 09:53:50;;;;;;;8.67;4.70;;;26.80;1.00;;;;;;5029510;28;46030;-78
2023/06/17 09:56:18;;;;;;;8.47;4.97;;;26.60;1.00;;;;;;5035594;28;46428;-79
2023/06/17 09:58:44;;;;;;;7.93;4.73;;;26.50;1.00;;;;;;5029627;28;46436;-78
2023/06/17 10:01:11;;;;;;;9.13;4.57;;;27.10;1.00;;;;;;5031083;28;45966;-79
2023/06/17 10:03:39;;;;;;;11.13;4.67;;;27.80;1.00;;;;;;5030641;28;47724;-78
2023/06/17 10:06:11;;;;;;;9.33;4.70;;;28.40;1.00;;;;;;5032107;28;45915;-81
2023/06/17 10:08:40;;;;;;;8.07;4.50;;;28.80;1.00;;;;;;5035709;28;46547;-78
2023/06/17 10:11:06;;;;;;;12.70;5.30;;;28.80;1.00;;;;;;5031698;28;45877;-79
2023/06/17 10:13:36;;;;;;;7.43;4.50;;;28.40;1.00;;;;;;5033108;28;48282;-78
2023/06/17 10:16:04;;;;;;;8.13;4.63;;;27.90;1.00;;;;;;5025392;28;46439;-76
2023/06/17 10:18:33;;;;;;;12.23;4.97;;;27.60;1.00;;;;;;5027732;28;46473;-76
2023/06/17 10:21:00;;;;;;;9.20;5.67;;;27.60;1.00;;;;;;5028995;28;46557;-76
2023/06/17 10:23:26;;;;;;;9.20;5.40;;;27.00;1.00;;;;;;5028972;28;47076;-77
2023/06/17 10:25:53;;;;;;;8.00;4.50;;;26.60;1.00;;;;;;5030402;28;46339;-79
2023/06/17 10:28:19;;;;;;;10.23;4.90;;;26.20;1.00;;;;;;5030523;28;45754;-78
2023/06/17 10:30:46;;;;;;;10.33;4.70;;;25.80;1.00;;;;;;5030906;28;46755;-78
2023/06/17 10:33:12;;;;;;;7.37;5.00;;;25.80;1.00;;;;;;5026769;28;47172;-77
2023/06/17 10:35:38;;;;;;;7.30;4.53;;;25.90;1.00;;;;;;5028003;28;46094;-77
2023/06/17 10:38:03;;;;;;;13.83;5.00;;;26.30;1.00;;;;;;5020533;28;46512;-79
2023/06/17 10:40:31;;;;;;;12.53;4.83;;;26.30;1.00;;;;;;5036039;28;46752;-77
2023/06/17 10:43:02;;;;;;;12.50;4.50;;;26.30;1.00;;;;;;5017906;28;48268;-76
2023/06/17 10:45:29;;;;;;;6.80;4.47;;;26.50;1.00;;;;;;5019403;28;47125;-79
2023/06/17 10:48:17;;;;;;;9.17;5.13;;;26.60;1.00;;;;;;5045506;28;46446;-79
2023/06/17 10:50:43;;;;;;;9.10;4.73;;;26.80;1.00;;;;;;5014664;28;46433;-81
2023/06/17 10:53:14;;;;;;;8.47;5.20;;;26.90;1.00;;;;;;5024285;28;47289;-80
2023/06/17 10:55:41;;;;;;;9.87;5.90;;;26.90;1.00;;;;;;5030243;28;46502;-80
2023/06/17 10:58:07;;;;;;;12.33;5.57;;;27.00;1.00;;;;;;5029713;28;46558;-80
2023/06/17 11:00:32;;;;;;;12.83;5.30;;;27.20;1.00;;;;;;5036414;28;46704;-83
2023/06/17 11:02:58;;;;;;;9.20;4.77;;;27.60;1.00;;;;;;5033127;28;46474;-80
2023/06/17 11:05:24;;;;;;;8.03;5.30;;;27.80;1.00;;;;;;5034488;28;46505;-81
2023/06/17 11:07:50;;;;;;;11.80;5.33;;;28.50;1.00;;;;;;5022618;28;47066;-83
2023/06/17 11:10:16;;;;;;;10.63;5.10;;;28.60;1.00;;;;;;5019785;28;46627;-78
2023/06/17 11:12:46;;;;;;;10.40;5.90;;;28.50;1.00;;;;;;5014517;28;48101;-74
2023/06/17 11:15:11;;;;;;;9.43;4.87;;;28.30;1.00;;;;;;5034458;28;46482;-81
2023/06/17 11:17:37;;;;;;;11.13;5.47;;;28.50;1.00;;;;;;5032677;28;46463;-79
2023/06/17 11:20:07;;;;;;;7.90;4.73;;;28.70;1.00;;;;;;5032527;28;45961;-78
2023/06/17 11:22:38;;;;;;;7.60;5.17;;;28.50;1.00;;;;;;5033180;28;47983;-79
2023/06/17 11:25:04;;;;;;;9.50;5.57;;;28.40;1.00;;;;;;5029417;28;46436;-78
2023/06/17 11:27:30;;;;;;;13.90;6.00;;;28.50;1.00;;;;;;5015616;28;46530;-78
2023/06/17 11:29:55;;;;;;;10.47;5.47;;;28.60;1.00;;;;;;5039571;28;46483;-79
2023/06/17 11:32:21;;;;;;;9.37;4.53;;;28.80;1.00;;;;;;5030648;28;46674;-78
2023/06/17 11:34:49;;;;;;;9.97;5.73;;;29.10;1.00;;;;;;5030599;28;47413;-78
2023/06/17 11:37:16;;;;;;;9.60;5.27;;;28.90;1.00;;;;;;5032689;28;46472;-78
2023/06/17 11:39:42;;;;;;;13.13;5.63;;;28.50;1.00;;;;;;5012912;28;46477;-78
2023/06/17 11:42:09;;;;;;;15.13;5.90;;;28.10;1.00;;;;;;5026353;28;46415;-78
2023/06/17 11:44:36;;;;;;;11.60;4.60;;;28.10;1.00;;;;;;5030371;28;46793;-77
2023/06/17 11:47:06;;;;;;;9.00;4.60;;;28.00;1.00;;;;;;5033444;28;46527;-79
2023/06/17 11:49:32;;;;;;;7.07;5.20;;;27.70;1.00;;;;;;5033665;28;47074;-78
2023/06/17 11:52:08;;;;;;;7.80;5.37;;;27.80;1.00;;;;;;5031008;28;46261;-81
2023/06/17 11:54:35;;;;;;;14.63;5.50;;;27.50;1.00;;;;;;5034234;28;46481;-78
2023/06/17 11:57:02;;;;;;;8.33;5.60;;;27.70;1.00;;;;;;5029702;28;46726;-76
2023/06/17 11:59:29;;;;;;;12.57;5.53;;;27.80;1.00;;;;;;5032342;28;46670;-79
2023/06/17 12:01:55;;;;;;;8.93;5.47;;;27.30;1.00;;;;;;5034737;28;46448;-77
2023/06/17 12:04:21;;;;;;;8.90;5.50;;;27.00;1.00;;;;;;5031055;28;46439;-78
2023/06/17 12:06:47;;;;;;;8.30;4.60;;;27.30;1.00;;;;;;5032269;28;47006;-77
2023/06/17 12:09:13;;;;;;;8.80;5.10;;;27.50;1.00;;;;;;5036916;28;46904;-76
2023/06/17 12:11:39;;;;;;;9.93;4.90;;;27.80;1.00;;;;;;5032523;28;47280;-78
2023/06/17 12:14:10;;;;;;;10.23;4.63;;;27.70;1.00;;;;;;5028751;28;46502;-76
2023/06/17 12:16:37;;;;;;;9.53;5.93;;;27.90;1.00;;;;;;5028762;28;46544;-78
2023/06/17 12:19:06;;;;;;;11.13;5.37;;;28.20;1.00;;;;;;5031151;28;46873;-76
2023/06/17 12:21:33;;;;;;;11.30;5.60;;;28.20;1.00;;;;;;5029392;28;47114;-77
2023/06/17 12:23:58;;;;;;;14.93;4.80;;;28.00;1.00;;;;;;5029577;28;47432;-79
2023/06/17 12:26:25;;;;;;;7.83;5.93;;;27.80;1.00;;;;;;5040600;28;46526;-77
2023/06/17 12:28:52;;;;;;;6.97;4.50;;;27.70;1.00;;;;;;5018763;28;46714;-79
2023/06/17 12:31:18;;;;;;;12.67;5.23;;;27.80;1.00;;;;;;5024711;28;46824;-77
2023/06/17 12:33:46;;;;;;;16.63;5.93;;;28.20;1.00;;;;;;5028467;28;48894;-79
2023/06/17 12:36:12;;;;;;;7.00;4.53;;;28.50;1.00;;;;;;5035141;28;46485;-82
2023/06/17 12:38:41;;;;;;;10.00;5.27;;;28.60;1.00;;;;;;5049234;28;45867;-78
2023/06/17 12:41:07;;;;;;;13.97;5.37;;;28.80;1.00;;;;;;5031729;28;46879;-79
2023/06/17 12:43:32;;;;;;;10.77;5.17;;;29.00;1.00;;;;;;5034894;28;46363;-84